Time;durP1;ratioP1;P1;durP2;ratioP2;P2;SDS_P1;SDS_P2;PMS_P1;PMS_P2;Temp;Humidity;BMP_temperature;BMP_pressure;BME280_temperature;BME280_humidity;BME280_pressure;Samples;Min_cycle;Max_cycle;Signal;HPM_P1;HPM_P2
2021/11/05 00:01:12;;;;;;;21.65;17.50;;;;;;;15.50;72.47;101485.66;5014816;28;102677;-48
2021/11/05 00:03:39;;;;;;;19.98;16.88;;;;;;;15.50;72.57;101484.84;5018176;27;102462;-47
2021/11/05 00:06:05;;;;;;;20.33;17.77;;;;;;;15.51;72.65;101495.56;5012972;28;103912;-50
2021/11/05 00:08:33;;;;;;;20.10;17.58;;;;;;;15.50;72.50;101488.41;5010996;28;102206;-50
2021/11/05 00:11:00;;;;;;;22.48;17.80;;;;;;;15.50;72.59;101496.63;5011684;28;102167;-47
2021/11/05 00:13:26;;;;;;;20.23;17.50;;;;;;;15.51;72.41;101490.06;5015822;27;106401;-47
2021/11/05 00:15:53;;;;;;;22.52;18.50;;;;;;;15.51;72.65;101497.47;5023846;27;103855;-48
2021/11/05 00:18:20;;;;;;;20.30;17.08;;;;;;;15.51;72.66;101490.06;5021187;28;104455;-48
2021/11/05 00:20:46;;;;;;;21.83;17.90;;;;;;;15.51;72.43;101498.28;5016519;27;102166;-47
2021/11/05 00:23:14;;;;;;;20.95;18.52;;;;;;;15.51;72.84;101481.03;5013229;27;103292;-48
2021/11/05 00:25:43;;;;;;;20.38;17.73;;;;;;;15.52;72.78;101485.41;5012702;28;103763;-47
2021/11/05 00:28:10;;;;;;;21.80;17.95;;;;;;;15.50;72.74;101477.44;5023918;27;102219;-50
2021/11/05 00:30:37;;;;;;;20.65;17.38;;;;;;;15.51;72.31;101468.13;5015473;27;102234;-46
2021/11/05 00:33:04;;;;;;;19.08;16.88;;;;;;;15.50;72.62;101466.47;5007441;27;102466;-48
2021/11/05 00:35:30;;;;;;;21.17;18.23;;;;;;;15.50;72.97;101466.47;5010913;27;103854;-47
2021/11/05 00:37:56;;;;;;;19.38;17.20;;;;;;;15.51;72.65;101459.88;5009195;27;102166;-51
2021/11/05 00:40:25;;;;;;;21.90;17.98;;;;;;;15.51;72.55;101468.13;5013447;27;102382;-47
2021/11/05 00:42:53;;;;;;;;;;;;;;;15.51;72.47;101468.13;5007300;27;102350;-47
2021/11/05 00:45:20;;;;;;;20.38;17.25;;;;;;;15.51;72.88;101470.88;5012645;27;103716;-49
2021/11/05 00:47:46;;;;;;;21.55;17.92;;;;;;;15.51;72.53;101459.88;5009210;28;101943;-49
2021/11/05 00:50:13;;;;;;;21.77;18.08;;;;;;;15.51;72.71;101459.88;5015459;28;101994;-49
2021/11/05 00:52:40;;;;;;;21.95;18.27;;;;;;;15.51;72.45;101462.63;5024595;27;102789;-49
2021/11/05 00:55:07;;;;;;;20.63;18.27;;;;;;;15.51;72.42;101468.13;5014103;27;103951;-47
2021/11/05 00:57:34;;;;;;;20.85;18.52;;;;;;;15.51;72.83;101473.59;5014241;27;102633;-47
2021/11/05 01:00:08;;;;;;;20.88;18.27;;;;;;;15.51;73.07;101473.59;5003625;28;103618;-48
2021/11/05 01:02:36;;;;;;;22.90;18.27;;;;;;;15.50;72.91;101463.72;5015657;28;102862;-48
2021/11/05 01:05:03;;;;;;;22.90;18.70;;;;;;;15.52;72.61;101467.00;5022322;27;104251;-49
2021/11/05 01:07:31;;;;;;;21.00;17.27;;;;;;;15.52;72.80;101464.25;5016662;28;102177;-48
2021/11/05 01:09:57;;;;;;;49.88;20.42;;;;;;;15.51;72.54;101459.88;5014797;27;102213;-47
2021/11/05 01:12:24;;;;;;;50.65;21.08;;;;;;;15.51;72.83;101451.66;5013693;27;102164;-48
2021/11/05 01:14:51;;;;;;;51.00;21.17;;;;;;;15.52;72.83;101461.53;5012894;27;103979;-48
2021/11/05 01:17:20;;;;;;;24.10;18.00;;;;;;;15.51;72.66;101459.88;5014168;28;102278;-46
2021/11/05 01:19:46;;;;;;;37.55;20.27;;;;;;;15.52;72.53;101458.78;5014279;28;102479;-49
2021/11/05 01:22:12;;;;;;;26.13;18.10;;;;;;;15.53;72.86;101454.09;5007394;28;102439;-48
2021/11/05 01:24:42;;;;;;;21.33;18.25;;;;;;;15.52;72.65;101464.25;5017262;28;104125;-47
2021/11/05 01:27:09;;;;;;;21.08;17.80;;;;;;;15.53;72.61;101471.38;5015363;28;102571;-50
2021/11/05 01:29:35;;;;;;;19.63;17.52;;;;;;;15.53;72.96;101470.56;5015117;27;102620;-47
2021/11/05 01:32:03;;;;;;;20.95;17.38;;;;;;;15.53;72.44;101465.06;5015203;27;103083;-47
2021/11/05 01:34:31;;;;;;;21.08;17.55;;;;;;;15.52;72.96;101463.44;5013232;27;103882;-47
2021/11/05 01:36:58;;;;;;;21.13;17.98;;;;;;;15.53;72.87;101460.41;5013141;27;103364;-48
2021/11/05 01:39:24;;;;;;;20.92;16.92;;;;;;;15.52;72.87;101458.78;5013769;28;102606;-48
2021/11/05 01:41:51;;;;;;;21.38;17.83;;;;;;;15.52;72.86;101445.06;5001803;28;102455;-47
2021/11/05 01:44:22;;;;;;;21.55;17.23;;;;;;;15.53;72.94;101443.94;5009590;27;103766;-48
2021/11/05 01:46:48;;;;;;;22.85;18.65;;;;;;;15.52;72.67;101447.81;5011657;27;102021;-47
2021/11/05 01:49:15;;;;;;;23.42;17.02;;;;;;;15.53;72.73;101437.66;5014795;27;102053;-48
2021/11/05 01:51:43;;;;;;;22.13;17.08;;;;;;;15.52;72.60;101447.81;5014569;27;102172;-51
2021/11/05 01:56:39;;;;;;;20.70;16.65;;;;;;;15.52;72.48;101461.53;5039105;27;102375;-50
2021/11/05 01:59:06;;;;;;;19.83;17.42;;;;;;;15.51;73.09;101451.66;5047967;27;102024;-46
2021/11/05 02:01:34;;;;;;;20.90;16.73;;;;;;;15.52;73.04;101456.03;5052428;27;102187;-48
2021/11/05 02:04:01;;;;;;;21.57;17.20;;;;;;;15.53;72.98;101456.84;5035613;27;103925;-50
2021/11/05 02:06:29;;;;;;;22.77;17.55;;;;;;;15.52;73.43;101449.72;5037649;27;105026;-48
2021/11/05 02:08:59;;;;;;;21.63;17.70;;;;;;;15.53;72.75;101456.84;5037890;27;102043;-47
2021/11/05 02:11:28;;;;;;;19.63;16.20;;;;;;;15.51;73.02;101459.88;5035730;28;102712;-48
2021/11/05 02:13:55;;;;;;;18.70;16.58;;;;;;;15.52;72.97;101463.44;5029966;27;104196;-49
2021/11/05 02:16:22;;;;;;;21.58;17.17;;;;;;;15.52;72.61;101458.78;5030053;27;102552;-47
2021/11/05 02:18:50;;;;;;;19.67;16.88;;;;;;;15.52;73.06;101461.53;5034753;27;103434;-47
2021/11/05 02:21:21;;;;;;;18.25;16.20;;;;;;;15.52;72.96;101467.00;5036793;28;102244;-46
2021/11/05 02:23:49;;;;;;;19.50;16.48;;;;;;;15.52;73.18;101458.78;5031225;27;103734;-47
2021/11/05 02:26:15;;;;;;;18.80;16.52;;;;;;;15.52;72.79;101464.25;5024376;28;108047;-48
2021/11/05 02:28:41;;;;;;;21.13;18.30;;;;;;;15.52;72.94;101468.94;5031714;27;102554;-47
2021/11/05 02:31:08;;;;;;;19.58;17.27;;;;;;;15.52;72.69;101466.19;5022691;28;103308;-47
2021/11/05 02:33:34;;;;;;;18.58;16.40;;;;;;;15.53;73.05;101470.56;5027186;28;103286;-47
2021/11/05 02:36:01;;;;;;;18.10;16.23;;;;;;;15.51;72.59;101465.38;5026742;28;102680;-47
2021/11/05 02:38:27;;;;;;;17.98;15.95;;;;;;;15.52;72.99;101477.97;5029517;28;102474;-47
2021/11/05 02:40:55;;;;;;;18.85;16.40;;;;;;;15.53;72.59;101478.78;5030391;27;102182;-47
2021/11/05 02:43:21;;;;;;;17.08;15.38;;;;;;;15.51;72.74;101470.88;5030749;28;108024;-47
2021/11/05 02:45:48;;;;;;;18.52;16.52;;;;;;;15.52;72.94;101475.25;5027552;27;102330;-48
2021/11/05 02:48:14;;;;;;;18.73;16.83;;;;;;;15.53;73.13;101476.06;5018113;28;102039;-48
2021/11/05 02:50:42;;;;;;;21.00;17.05;;;;;;;15.52;72.66;101488.13;5025763;28;102658;-46
2021/11/05 02:53:09;;;;;;;19.27;16.38;;;;;;;15.52;72.76;101491.69;5028958;27;104035;-46
2021/11/05 02:55:37;;;;;;;18.80;16.38;;;;;;;15.53;72.50;101476.88;5031721;28;102273;-48
2021/11/05 02:58:05;;;;;;;18.15;16.23;;;;;;;15.52;72.85;101485.41;5035528;27;103717;-49
2021/11/05 03:00:32;;;;;;;19.07;16.47;;;;;;;15.52;72.53;101486.22;5024175;28;102566;-47
2021/11/05 03:02:58;;;;;;;18.95;16.08;;;;;;;15.52;73.08;101480.72;5025795;28;103899;-48
2021/11/05 03:05:25;;;;;;;19.30;16.60;;;;;;;15.52;72.67;101483.47;5032195;27;106262;-47
2021/11/05 03:07:52;;;;;;;16.70;14.93;;;;;;;15.53;72.61;101482.34;5031000;27;102349;-46
2021/11/05 03:10:19;;;;;;;21.55;15.93;;;;;;;15.52;72.90;101472.50;5033333;27;102153;-47
2021/11/05 03:12:47;;;;;;;18.58;15.30;;;;;;;15.53;72.95;101473.31;5031702;27;103887;-48
2021/11/05 03:15:15;;;;;;;18.38;15.15;;;;;;;15.53;72.79;101471.38;5034666;28;102572;-50
2021/11/05 03:17:42;;;;;;;17.77;15.38;;;;;;;15.52;72.59;101464.25;5028312;28;102151;-48
2021/11/05 03:20:10;;;;;;;18.80;15.80;;;;;;;15.53;72.99;101473.31;5030569;28;102626;-49
2021/11/05 03:22:39;;;;;;;16.52;14.82;;;;;;;15.53;72.80;101465.06;5027338;28;103888;-46
2021/11/05 03:25:06;;;;;;;17.88;15.32;;;;;;;15.52;72.68;101469.75;5029650;27;102145;-47
2021/11/05 03:27:33;;;;;;;17.10;14.65;;;;;;;15.53;72.96;101470.56;5030007;27;102357;-48
2021/11/05 03:30:00;;;;;;;20.48;15.57;;;;;;;15.53;72.87;101470.56;5027673;28;102177;-46
2021/11/05 03:32:29;;;;;;;16.95;15.00;;;;;;;15.52;72.90;101469.75;5026208;28;103681;-49
2021/11/05 03:34:56;;;;;;;17.13;15.23;;;;;;;15.53;72.54;101465.88;5016035;28;102438;-49
2021/11/05 03:37:23;;;;;;;16.02;14.30;;;;;;;15.52;73.03;101467.00;5030603;27;102385;-48
2021/11/05 03:39:49;;;;;;;18.40;14.88;;;;;;;15.53;72.62;101467.81;5027339;28;102539;-48
2021/11/05 03:42:16;;;;;;;16.10;14.40;;;;;;;15.52;72.98;101463.44;5024784;27;103957;-46
2021/11/05 03:44:42;;;;;;;17.88;15.27;;;;;;;15.52;72.80;101458.78;5032646;28;103856;-46
2021/11/05 03:47:09;;;;;;;15.77;14.07;;;;;;;15.52;72.82;101464.25;5027220;27;102195;-47
2021/11/05 03:49:36;;;;;;;15.73;14.10;;;;;;;15.52;73.16;101458.78;5034529;27;102209;-48
2021/11/05 03:52:05;;;;;;;16.45;14.63;;;;;;;15.53;72.97;101460.41;5035986;27;103672;-50
2021/11/05 03:54:32;;;;;;;14.88;13.27;;;;;;;15.52;72.85;101458.78;5032869;27;102530;-47
2021/11/05 03:56:59;;;;;;;16.15;13.90;;;;;;;15.52;72.53;101464.25;5025703;28;104269;-50
2021/11/05 03:59:25;;;;;;;15.57;13.98;;;;;;;15.52;72.57;101461.53;5033650;28;102207;-47
2021/11/05 04:01:52;;;;;;;15.85;13.88;;;;;;;15.52;73.11;101469.75;5032419;28;103927;-47
2021/11/05 04:04:19;;;;;;;15.25;13.55;;;;;;;15.52;72.51;101469.75;5024351;28;102623;-46
2021/11/05 04:06:48;;;;;;;16.83;14.73;;;;;;;15.51;72.94;101465.38;5021080;28;102517;-47
2021/11/05 04:09:14;;;;;;;15.63;13.95;;;;;;;15.52;72.91;101467.00;5023808;28;102275;-48
2021/11/05 04:11:41;;;;;;;16.38;14.07;;;;;;;15.52;73.06;101464.25;5032863;28;104237;-49
2021/11/05 04:14:09;;;;;;;15.95;14.20;;;;;;;15.52;72.96;101458.78;5030030;27;104449;-48
2021/11/05 04:16:36;;;;;;;15.52;13.82;;;;;;;15.52;72.64;101464.25;5030803;28;102164;-47
2021/11/05 04:19:03;;;;;;;15.50;13.50;;;;;;;15.52;72.63;101469.75;5025089;28;102210;-47
2021/11/05 04:21:30;;;;;;;15.38;13.27;;;;;;;15.53;72.96;101465.06;5020594;27;104123;-47
2021/11/05 04:24:01;;;;;;;17.98;13.55;;;;;;;15.52;72.69;101457.97;5029855;27;102271;-48
2021/11/05 04:26:27;;;;;;;17.17;13.85;;;;;;;15.52;72.82;101466.19;5025974;28;102730;-47
2021/11/05 04:28:54;;;;;;;15.43;13.85;;;;;;;15.52;72.69;101458.78;5034119;27;102303;-48
2021/11/05 04:31:21;;;;;;;15.20;13.60;;;;;;;15.52;73.20;101456.03;5032057;28;104140;-48
2021/11/05 04:33:48;;;;;;;16.40;14.68;;;;;;;15.52;72.80;101458.78;5023224;27;102076;-47
2021/11/05 04:36:16;;;;;;;15.27;13.50;;;;;;;15.52;72.70;101463.44;5024274;27;102217;-46
2021/11/05 04:38:42;;;;;;;15.90;12.57;;;;;;;15.53;72.69;101465.06;5031083;28;103114;-46
2021/11/05 04:41:10;;;;;;;16.10;13.35;;;;;;;15.52;73.06;101464.25;5031053;28;104021;-46
2021/11/05 04:43:36;;;;;;;15.13;13.00;;;;;;;15.53;72.74;101459.59;5028611;27;103093;-46
2021/11/05 04:46:03;;;;;;;14.98;13.05;;;;;;;15.52;73.02;101464.25;5029686;28;102273;-48
2021/11/05 04:48:29;;;;;;;14.20;12.70;;;;;;;15.52;73.08;101467.00;5032902;28;102365;-46
2021/11/05 04:50:56;;;;;;;15.75;13.30;;;;;;;15.53;73.09;101465.06;5017391;28;103888;-46
2021/11/05 04:53:23;;;;;;;15.07;13.38;;;;;;;15.52;73.25;101467.00;5026475;28;102479;-46
2021/11/05 04:55:49;;;;;;;14.65;13.10;;;;;;;15.51;72.61;101468.13;5027320;28;102819;-47
2021/11/05 04:58:17;;;;;;;16.08;13.27;;;;;;;15.52;73.06;101469.75;5033119;27;102329;-49
2021/11/05 05:00:43;;;;;;;14.68;12.52;;;;;;;15.52;72.80;101491.69;5032570;27;103931;-50
2021/11/05 05:03:10;;;;;;;16.77;12.90;;;;;;;15.51;73.08;101490.06;5036057;28;101776;-47
2021/11/05 05:05:36;;;;;;;15.15;13.60;;;;;;;15.52;73.18;101497.19;5026167;27;102201;-50
2021/11/05 05:08:03;;;;;;;16.73;13.25;;;;;;;15.51;73.10;101495.56;5021560;27;102687;-49
2021/11/05 05:10:30;;;;;;;14.35;12.85;;;;;;;15.52;73.03;101508.16;5023937;27;103931;-46
2021/11/05 05:12:56;;;;;;;17.20;13.52;;;;;;;15.52;73.05;101508.16;5028001;28;102716;-47
2021/11/05 05:15:25;;;;;;;15.50;13.70;;;;;;;15.53;72.68;101503.47;5028175;27;102355;-47
2021/11/05 05:17:51;;;;;;;14.98;13.40;;;;;;;15.52;72.75;101508.16;5030058;27;102175;-46
2021/11/05 05:20:19;;;;;;;14.90;13.05;;;;;;;15.52;72.79;101513.63;5022310;28;104027;-46
2021/11/05 05:22:47;;;;;;;15.23;12.30;;;;;;;15.53;73.16;101515.28;5033180;27;102330;-47
2021/11/05 05:25:15;;;;;;;15.13;13.52;;;;;;;15.53;73.18;101511.72;5029502;28;103230;-49
2021/11/05 05:27:43;;;;;;;14.33;12.93;;;;;;;15.53;73.07;101509.78;5027285;27;103077;-50
2021/11/05 05:30:12;;;;;;;15.13;13.23;;;;;;;15.53;72.79;101509.78;5026508;27;103943;-49
2021/11/05 05:32:41;;;;;;;15.70;13.05;;;;;;;15.54;72.63;101510.59;5024708;27;102463;-47
2021/11/05 05:35:08;;;;;;;14.18;12.13;;;;;;;15.53;73.17;101514.47;5036687;27;101985;-46
2021/11/05 05:37:35;;;;;;;14.88;13.05;;;;;;;15.53;72.78;101519.94;5030376;27;102485;-47
2021/11/05 05:40:02;;;;;;;15.18;12.70;;;;;;;15.53;72.59;101520.75;5025166;28;104165;-50
2021/11/05 05:42:29;;;;;;;14.95;13.10;;;;;;;15.54;73.07;101530.66;5031558;28;102235;-46
2021/11/05 05:44:55;;;;;;;14.20;12.23;;;;;;;15.53;72.76;101531.72;5033331;28;103219;-47
2021/11/05 05:47:22;;;;;;;16.17;13.00;;;;;;;15.53;73.14;101525.44;5021583;27;102402;-47
2021/11/05 05:49:51;;;;;;;14.43;12.80;;;;;;;15.53;73.10;101526.25;5030599;27;103904;-46
2021/11/05 05:52:17;;;;;;;16.77;13.38;;;;;;;15.54;72.77;101522.41;5030745;28;102363;-48
2021/11/05 05:54:44;;;;;;;13.73;12.35;;;;;;;15.55;73.01;101528.72;5030007;27;102807;-47
2021/11/05 05:57:10;;;;;;;15.30;12.93;;;;;;;15.54;73.15;101532.53;5028036;27;105683;-47
2021/11/05 05:59:38;;;;;;;14.63;12.88;;;;;;;15.54;73.15;101524.31;5024439;27;104318;-47
2021/11/05 06:02:05;;;;;;;14.40;12.52;;;;;;;15.54;72.73;101521.56;5028420;27;102518;-47
2021/11/05 06:04:32;;;;;;;17.90;13.15;;;;;;;15.55;73.16;101528.72;5024405;27;102341;-47
2021/11/05 06:07:00;;;;;;;15.80;12.38;;;;;;;15.55;72.78;101526.78;5025299;27;103152;-48
2021/11/05 06:09:26;;;;;;;16.47;13.63;;;;;;;15.53;73.25;101520.75;5016585;28;103960;-51
2021/11/05 06:11:53;;;;;;;15.25;13.38;;;;;;;15.55;72.91;101529.53;5024155;28;102366;-48
2021/11/05 06:14:19;;;;;;;15.18;12.90;;;;;;;15.55;73.29;101535.03;5031281;28;102088;-49
2021/11/05 06:16:46;;;;;;;15.75;12.73;;;;;;;15.55;73.35;101548.75;5032695;27;102154;-47
2021/11/05 06:19:13;;;;;;;15.00;13.38;;;;;;;15.55;73.37;101546.00;5025924;28;103618;-48
2021/11/05 06:21:40;;;;;;;15.00;13.32;;;;;;;15.56;73.39;101546.81;5028469;27;104662;-47
2021/11/05 06:24:07;;;;;;;15.48;13.07;;;;;;;15.56;73.38;101563.28;5021995;27;102201;-46
2021/11/05 06:26:34;;;;;;;17.63;14.65;;;;;;;15.56;73.05;101561.34;5020486;27;102227;-48
2021/11/05 06:29:03;;;;;;;16.75;13.38;;;;;;;15.56;72.78;101557.78;5022973;27;103923;-48
2021/11/05 06:31:33;;;;;;;18.15;14.15;;;;;;;15.56;72.76;101561.34;5023288;27;102376;-47
2021/11/05 06:33:59;;;;;;;18.10;14.23;;;;;;;15.56;73.33;101561.34;5027085;27;102453;-48
2021/11/05 06:36:26;;;;;;;15.95;13.60;;;;;;;15.56;73.13;101558.59;5031175;28;102464;-47
2021/11/05 06:38:52;;;;;;;18.27;14.23;;;;;;;15.58;73.01;101561.06;5029710;27;103876;-48
2021/11/05 06:41:20;;;;;;;15.15;13.52;;;;;;;15.58;73.09;101561.06;5029845;27;102278;-48
2021/11/05 06:43:47;;;;;;;18.08;13.90;;;;;;;15.58;72.81;101556.41;5032327;27;102521;-50
2021/11/05 06:46:13;;;;;;;15.93;13.43;;;;;;;15.58;73.18;101556.41;5027464;27;102671;-50
2021/11/05 06:48:40;;;;;;;16.88;14.50;;;;;;;15.59;73.08;101557.22;5027332;27;103526;-49
2021/11/05 06:51:06;;;;;;;15.43;13.23;;;;;;;15.60;72.91;101550.63;5025798;27;102357;-49
2021/11/05 06:53:33;;;;;;;15.32;13.68;;;;;;;15.59;72.89;101558.03;5029164;27;102533;-48
2021/11/05 06:56:00;;;;;;;14.70;13.15;;;;;;;15.59;73.36;101547.06;5028530;27;102405;-52
2021/11/05 06:58:32;;;;;;;16.08;13.43;;;;;;;15.60;73.31;101543.22;5029283;27;104058;-51
2021/11/05 07:00:58;;;;;;;15.48;13.05;;;;;;;15.60;73.07;101554.19;5034508;27;102852;-48
2021/11/05 07:03:25;;;;;;;16.02;13.38;;;;;;;15.59;73.07;101547.06;5037750;27;102275;-51
2021/11/05 07:05:52;;;;;;;14.23;12.73;;;;;;;15.60;73.00;101554.19;5024530;28;102689;-47
2021/11/05 07:08:18;;;;;;;14.88;13.38;;;;;;;15.61;73.06;101555.00;5032175;27;103933;-48
2021/11/05 07:10:47;;;;;;;18.15;14.20;;;;;;;15.61;73.39;101549.50;5036166;28;102081;-49
2021/11/05 07:13:13;;;;;;;15.75;13.32;;;;;;;15.61;73.33;101555.84;5030595;27;102260;-48
2021/11/05 07:15:41;;;;;;;17.63;14.38;;;;;;;15.61;73.75;101550.34;5031575;27;102679;-48
2021/11/05 07:18:08;;;;;;;17.02;13.98;;;;;;;15.63;73.73;101550.06;5025349;28;104016;-51
2021/11/05 07:20:36;;;;;;;17.60;14.55;;;;;;;15.62;73.52;101557.47;5025305;27;102300;-51
2021/11/05 07:23:03;;;;;;;15.75;14.15;;;;;;;15.63;73.77;101556.38;5027247;27;102105;-47
2021/11/05 07:25:31;;;;;;;17.38;14.63;;;;;;;15.65;73.44;101555.25;5027375;27;104703;-50
2021/11/05 07:27:57;;;;;;;16.30;13.85;;;;;;;15.65;73.22;101555.25;5027805;27;103665;-52
2021/11/05 07:30:24;;;;;;;17.42;14.55;;;;;;;15.66;73.53;101559.69;5028710;28;102274;-49
2021/11/05 07:32:53;;;;;;;16.70;14.55;;;;;;;15.66;73.86;101556.94;5012388;28;104105;-48
2021/11/05 07:35:21;;;;;;;15.68;14.05;;;;;;;15.67;73.78;101564.06;5026765;28;102403;-48
2021/11/05 07:37:48;;;;;;;15.55;13.95;;;;;;;15.68;73.41;101572.00;5024974;27;104142;-49
2021/11/05 07:40:15;;;;;;;17.80;14.05;;;;;;;15.69;73.32;101567.34;5031481;28;103130;-50
2021/11/05 07:42:42;;;;;;;16.27;14.52;;;;;;;15.68;73.57;101565.69;5022206;27;104196;-48
2021/11/05 07:45:12;;;;;;;17.60;13.85;;;;;;;15.69;73.70;101556.38;5024117;27;102255;-51
2021/11/05 07:47:40;;;;;;;16.27;14.63;;;;;;;15.69;73.70;101546.22;5034951;27;103910;-47
2021/11/05 07:50:09;;;;;;;16.13;14.27;;;;;;;15.70;73.53;101547.03;5034665;27;102112;-47
2021/11/05 07:52:36;;;;;;;17.48;13.88;;;;;;;15.70;73.64;101547.84;5023252;28;102394;-48
2021/11/05 07:55:03;;;;;;;19.25;14.10;;;;;;;15.73;73.65;101543.72;5030883;28;102999;-48
2021/11/05 07:57:32;;;;;;;17.13;13.20;;;;;;;15.73;74.02;101540.97;5024969;27;107975;-47
2021/11/05 07:59:58;;;;;;;16.80;13.40;;;;;;;15.74;74.01;101537.13;5021854;28;101996;-48
2021/11/05 08:02:25;;;;;;;17.23;14.27;;;;;;;15.74;73.74;101543.41;5025279;27;102246;-47
2021/11/05 08:04:51;;;;;;;15.77;13.10;;;;;;;15.75;74.09;101545.06;5025584;27;105730;-48
2021/11/05 08:07:21;;;;;;;15.77;14.18;;;;;;;15.76;74.28;101546.72;5028022;27;103702;-48
2021/11/05 08:09:48;;;;;;;17.90;13.55;;;;;;;15.77;74.11;101536.53;5028514;27;102531;-48
2021/11/05 08:12:15;;;;;;;17.98;13.23;;;;;;;15.76;74.05;101533.00;5023531;27;102496;-51
2021/11/05 08:14:42;;;;;;;16.30;13.30;;;;;;;15.78;73.47;101543.66;5030289;27;102225;-50
2021/11/05 08:17:08;;;;;;;18.92;14.02;;;;;;;15.78;73.80;101544.47;5030951;27;103961;-49
2021/11/05 08:19:35;;;;;;;16.55;14.15;;;;;;;15.80;73.86;101549.69;5006804;28;102674;-48
2021/11/05 08:22:02;;;;;;;16.42;13.25;;;;;;;15.80;74.07;101560.69;5020826;27;103261;-51
2021/11/05 08:24:30;;;;;;;15.82;13.10;;;;;;;15.81;73.52;101559.56;5028533;27;102789;-47
2021/11/05 08:26:57;;;;;;;17.67;13.73;;;;;;;15.81;74.18;101565.06;5025766;27;104125;-48
2021/11/05 08:29:24;;;;;;;17.42;13.38;;;;;;;15.81;73.94;101554.06;5029374;27;102602;-51
2021/11/05 08:31:50;;;;;;;15.98;13.07;;;;;;;15.83;74.18;101549.09;5018051;27;102066;-48
2021/11/05 08:34:17;;;;;;;17.17;12.98;;;;;;;15.82;74.11;101551.03;5028273;27;102424;-50
2021/11/05 08:36:44;;;;;;;15.57;13.35;;;;;;;15.84;73.63;101545.28;5028046;27;103720;-49
2021/11/05 08:39:10;;;;;;;16.35;13.63;;;;;;;15.84;73.81;101548.03;5024678;28;102085;-48
2021/11/05 08:41:38;;;;;;;14.57;12.73;;;;;;;15.85;73.91;101544.16;5030627;27;102168;-47
2021/11/05 08:44:05;;;;;;;17.05;13.75;;;;;;;15.85;73.96;101544.97;5028393;27;102371;-50
2021/11/05 08:46:33;;;;;;;14.98;12.40;;;;;;;15.86;74.09;101551.28;5025810;28;103950;-48
2021/11/05 08:49:04;;;;;;;17.05;12.75;;;;;;;15.86;74.19;101532.06;5034072;27;104046;-47
2021/11/05 08:51:32;;;;;;;14.90;13.30;;;;;;;15.87;73.86;101544.72;5032630;28;102366;-47
2021/11/05 08:53:58;;;;;;;17.00;13.38;;;;;;;15.86;74.14;101545.78;5036585;27;102185;-47
2021/11/05 08:56:24;;;;;;;15.88;13.00;;;;;;;15.87;74.00;101547.44;5038232;27;104354;-47
2021/11/05 08:58:52;;;;;;;16.60;12.60;;;;;;;15.88;73.80;101542.78;5035771;27;102077;-47
2021/11/05 09:01:18;;;;;;;14.90;12.77;;;;;;;15.88;74.04;101537.28;5031942;27;102189;-47
2021/11/05 09:03:45;;;;;;;17.13;13.20;;;;;;;15.90;74.04;101535.06;5031854;27;103471;-48
2021/11/05 09:06:11;;;;;;;17.73;13.07;;;;;;;15.89;73.94;101547.97;5029286;27;103882;-48
2021/11/05 09:08:38;;;;;;;20.00;13.85;;;;;;;15.89;74.04;101545.22;5028252;27;102335;-47
2021/11/05 09:11:06;;;;;;;15.90;13.65;;;;;;;15.90;74.29;101541.38;5034557;27;102680;-50
2021/11/05 09:13:33;;;;;;;15.70;13.32;;;;;;;15.90;74.49;101546.84;5034637;27;102373;-49
2021/11/05 09:16:02;;;;;;;16.48;13.63;;;;;;;15.91;74.25;101547.69;5031348;28;104041;-47
2021/11/05 09:18:30;;;;;;;16.80;14.57;;;;;;;15.91;74.25;101554.00;5029611;27;102171;-49
2021/11/05 09:20:57;;;;;;;15.15;13.32;;;;;;;15.91;74.09;101554.00;5023899;27;102180;-48
2021/11/05 09:23:24;;;;;;;16.27;13.30;;;;;;;15.92;74.45;101560.31;5035748;27;102213;-50
2021/11/05 09:25:51;;;;;;;16.45;13.80;;;;;;;15.92;74.43;101555.63;5037298;27;103985;-48
2021/11/05 09:28:18;;;;;;;15.88;14.05;;;;;;;15.93;74.31;101553.72;5023789;28;102420;-49
2021/11/05 09:30:44;;;;;;;15.80;13.88;;;;;;;15.93;74.44;101562.75;5043560;27;102448;-49
2021/11/05 09:33:12;;;;;;;17.90;14.75;;;;;;;15.93;74.26;101568.25;5035135;28;102253;-47
2021/11/05 09:35:39;;;;;;;18.37;15.73;;;;;;;15.94;74.22;101558.94;5035574;27;103990;-48
2021/11/05 09:38:06;;;;;;;18.02;13.82;;;;;;;15.95;74.29;101570.72;5028561;28;102171;-48
2021/11/05 09:40:32;;;;;;;19.90;14.40;;;;;;;15.93;74.29;101557.25;5026419;27;102301;-48
2021/11/05 09:42:59;;;;;;;19.17;14.15;;;;;;;15.95;74.01;101573.47;5032488;27;102215;-49
2021/11/05 09:45:31;;;;;;;16.55;14.43;;;;;;;15.94;74.19;101563.56;5033065;27;104325;-48
2021/11/05 09:47:59;;;;;;;17.70;13.77;;;;;;;15.95;74.06;101571.53;5027909;27;102301;-48
2021/11/05 09:50:29;;;;;;;17.15;14.05;;;;;;;15.96;74.00;101575.09;5030673;27;103439;-48
2021/11/05 09:52:56;;;;;;;20.27;14.65;;;;;;;15.95;74.17;101568.78;5034496;28;102274;-49
2021/11/05 09:55:23;;;;;;;16.23;14.38;;;;;;;15.96;74.57;101569.59;5027774;28;104137;-50
2021/11/05 09:57:50;;;;;;;16.42;14.32;;;;;;;15.96;74.16;101569.59;5016316;28;103713;-48
2021/11/05 10:00:19;;;;;;;16.17;13.00;;;;;;;15.95;74.14;101567.97;5031046;27;102503;-48
2021/11/05 10:02:46;;;;;;;;;;;;;;;15.95;74.55;101566.03;5021685;28;104226;-47
2021/11/05 10:05:12;;;;;;;16.95;13.68;;;;;;;15.95;74.13;101566.03;5024726;28;103971;-51
2021/11/05 10:07:48;;;;;;;18.45;14.77;;;;;;;15.95;74.39;101571.53;5033254;28;103205;-48
2021/11/05 10:10:15;;;;;;;19.05;15.07;;;;;;;15.96;74.13;101567.69;5034382;27;102642;-48
2021/11/05 10:12:56;;;;;;;19.95;15.95;;;;;;;15.96;74.11;101567.69;5025836;27;102357;-48
2021/11/05 10:15:27;;;;;;;20.35;16.08;;;;;;;15.96;74.03;101569.59;5021039;28;107845;-48
2021/11/05 10:18:10;;;;;;;17.85;15.40;;;;;;;15.95;74.41;101566.03;5030333;27;102451;-48
2021/11/05 10:20:37;;;;;;;19.73;15.75;;;;;;;15.95;74.62;101566.03;5039064;27;102154;-49
2021/11/05 10:23:06;;;;;;;21.17;16.05;;;;;;;15.95;74.34;101568.78;5020238;28;102402;-49
2021/11/05 10:25:36;;;;;;;18.10;14.38;;;;;;;15.95;74.30;101557.81;5027677;27;103820;-47
2021/11/05 10:28:12;;;;;;;20.17;15.35;;;;;;;15.95;74.21;101544.09;5033499;27;102056;-49
2021/11/05 10:30:55;;;;;;;19.20;15.77;;;;;;;15.94;74.24;101547.94;5021212;27;102893;-48
2021/11/05 10:33:29;;;;;;;23.98;18.63;;;;;;;15.95;74.11;101549.56;5025795;27;102997;-50
2021/11/05 10:35:58;;;;;;;22.15;18.25;;;;;;;15.95;74.21;101546.81;5037804;27;103993;-48
2021/11/05 10:38:29;;;;;;;25.77;18.77;;;;;;;15.94;74.67;101550.69;5023795;27;102386;-47
2021/11/05 10:40:58;;;;;;;19.85;16.90;;;;;;;15.95;74.53;101546.00;5020712;27;103986;-51
2021/11/05 10:43:35;;;;;;;22.80;17.98;;;;;;;15.95;74.60;101538.59;5029658;27;102246;-48
2021/11/05 10:46:04;;;;;;;21.85;16.80;;;;;;;15.95;74.16;101533.09;5019423;28;104130;-49
2021/11/05 10:48:34;;;;;;;20.75;15.65;;;;;;;15.95;74.43;101533.09;5029271;28;102501;-51
2021/11/05 10:51:04;;;;;;;18.48;15.05;;;;;;;15.94;74.42;101536.97;5015623;28;102407;-49
2021/11/05 10:53:34;;;;;;;21.25;16.67;;;;;;;15.95;74.20;101535.03;5026514;28;102831;-48
2021/11/05 10:56:03;;;;;;;17.63;15.00;;;;;;;15.94;74.40;101539.72;5024376;27;104032;-51
2021/11/05 10:58:32;;;;;;;19.20;14.43;;;;;;;15.94;74.48;101528.72;5029705;27;102208;-49
2021/11/05 11:01:00;;;;;;;17.73;15.15;;;;;;;15.94;74.59;101520.50;5025697;27;102020;-49
2021/11/05 11:03:31;;;;;;;19.80;15.10;;;;;;;15.94;74.60;101517.75;5031627;27;103074;-48
2021/11/05 11:06:15;;;;;;;20.15;15.57;;;;;;;15.93;74.47;101524.31;5028889;27;103721;-48